Time;durP1;ratioP1;P1;durP2;ratioP2;P2;SDS_P1;SDS_P2;PMS_P1;PMS_P2;Temp;Humidity;BMP_temperature;BMP_pressure;BME280_temperature;BME280_humidity;BME280_pressure;Samples;Min_cycle;Max_cycle;Signal;HPM_P1;HPM_P2
2021/08/09 00:00:10;;;;;;;6.82;2.42;;;;;;;;;;5016122;28;20032;-74
2021/08/09 00:02:36;;;;;;;6.30;2.20;;;;;;;;;;5014765;28;20017;-75
2021/08/09 00:05:03;;;;;;;5.95;2.58;;;;;;;;;;5016089;28;20045;-75
2021/08/09 00:07:29;;;;;;;6.68;2.88;;;;;;;;;;5015323;28;20018;-74
2021/08/09 00:09:55;;;;;;;7.50;2.35;;;;;;;;;;5014709;28;20459;-76
2021/08/09 00:12:21;;;;;;;6.15;2.45;;;;;;;;;;5015885;28;20101;-74
2021/08/09 00:14:47;;;;;;;6.47;2.42;;;;;;;;;;5016099;28;20117;-75
2021/08/09 00:17:13;;;;;;;5.13;2.30;;;;;;;;;;5016115;28;20056;-75
2021/08/09 00:19:39;;;;;;;4.18;1.90;;;;;;;;;;5016091;28;20443;-76
2021/08/09 00:22:05;;;;;;;7.95;2.38;;;;;;;;;;5015751;28;20105;-74
2021/08/09 00:24:31;;;;;;;5.75;2.13;;;;;;;;;;5016224;28;20042;-75
2021/08/09 00:26:57;;;;;;;5.55;2.25;;;;;;;;;;5015641;28;20478;-76
2021/08/09 00:29:23;;;;;;;7.40;2.60;;;;;;;;;;5015589;28;20083;-74
2021/08/09 00:31:49;;;;;;;5.80;2.20;;;;;;;;;;5015824;28;20447;-76
2021/08/09 00:34:15;;;;;;;6.40;2.78;;;;;;;;;;5015410;28;20056;-75
2021/08/09 00:36:41;;;;;;;6.88;2.75;;;;;;;;;;5015418;28;20026;-75
2021/08/09 00:39:07;;;;;;;11.00;2.88;;;;;;;;;;5015667;28;20074;-77
2021/08/09 00:41:33;;;;;;;8.45;3.08;;;;;;;;;;5015366;28;20025;-74
2021/08/09 00:43:59;;;;;;;6.18;2.20;;;;;;;;;;5015351;28;20076;-74
2021/08/09 00:46:29;;;;;;;7.47;3.00;;;;;;;;;;5015562;28;20034;-76
2021/08/09 00:48:55;;;;;;;5.63;2.47;;;;;;;;;;5015267;28;20108;-74
2021/08/09 00:51:21;;;;;;;10.40;2.72;;;;;;;;;;5015120;28;20478;-75
2021/08/09 00:53:47;;;;;;;8.88;2.80;;;;;;;;;;5015089;28;20036;-74
2021/08/09 00:56:13;;;;;;;10.70;3.03;;;;;;;;;;5015114;28;20077;-74
2021/08/09 00:58:39;;;;;;;6.70;2.80;;;;;;;;;;5015344;28;20075;-74
2021/08/09 01:01:05;;;;;;;11.00;3.22;;;;;;;;;;5015036;28;20109;-75
2021/08/09 01:03:31;;;;;;;10.35;2.95;;;;;;;;;;5014848;28;20041;-75
2021/08/09 01:05:58;;;;;;;8.73;2.85;;;;;;;;;;5014674;28;20434;-73
2021/08/09 01:08:47;;;;;;;6.85;2.72;;;;;;;;;;5015090;28;20037;-75
2021/08/09 01:11:13;;;;;;;8.02;2.75;;;;;;;;;;5015120;28;20028;-74
2021/08/09 01:13:45;;;;;;;6.13;2.97;;;;;;;;;;5014691;28;20034;-75
2021/08/09 01:16:13;;;;;;;9.18;2.90;;;;;;;;;;5013451;28;20029;-74
2021/08/09 01:18:39;;;;;;;6.93;3.05;;;;;;;;;;5013243;28;20037;-76
2021/08/09 01:21:06;;;;;;;7.97;2.65;;;;;;;;;;5014175;28;20022;-74
2021/08/09 01:23:38;;;;;;;6.47;2.70;;;;;;;;;;5014872;28;20474;-75
2021/08/09 01:26:10;;;;;;;9.98;2.92;;;;;;;;;;5014604;28;20036;-74
2021/08/09 01:28:36;;;;;;;8.65;2.80;;;;;;;;;;5014577;28;20029;-76
2021/08/09 01:31:03;;;;;;;7.15;2.65;;;;;;;;;;5014502;28;20440;-74
2021/08/09 01:33:31;;;;;;;9.95;2.97;;;;;;;;;;5014657;28;20030;-75
2021/08/09 01:35:58;;;;;;;9.60;2.97;;;;;;;;;;5014947;28;20458;-75
2021/08/09 01:38:25;;;;;;;6.10;2.67;;;;;;;;;;5014327;28;20029;-74
2021/08/09 01:40:56;;;;;;;7.25;2.80;;;;;;;;;;5014548;28;20045;-75
2021/08/09 01:43:22;;;;;;;5.40;2.10;;;;;;;;;;5014572;28;20105;-74
2021/08/09 01:45:48;;;;;;;7.63;2.28;;;;;;;;;;5014194;28;20030;-75
2021/08/09 01:48:14;;;;;;;6.65;2.50;;;;;;;;;;5014658;28;20036;-76
2021/08/09 01:50:41;;;;;;;5.85;2.15;;;;;;;;;;5014387;28;20079;-74
2021/08/09 01:53:07;;;;;;;6.20;2.22;;;;;;;;;;5013984;28;20076;-77
2021/08/09 01:55:33;;;;;;;4.90;2.08;;;;;;;;;;5014056;28;20022;-74
2021/08/09 01:57:59;;;;;;;6.88;2.35;;;;;;;;;;5013941;28;20037;-75
2021/08/09 02:00:28;;;;;;;5.57;2.28;;;;;;;;;;5013866;28;20025;-74
2021/08/09 02:02:54;;;;;;;8.32;2.72;;;;;;;;;;5012613;28;20030;-74
2021/08/09 02:05:21;;;;;;;4.05;1.90;;;;;;;;;;5013873;28;20042;-75
2021/08/09 02:07:48;;;;;;;5.68;1.98;;;;;;;;;;5013823;28;20029;-74
2021/08/09 02:10:24;;;;;;;5.53;2.13;;;;;;;;;;5014080;28;20022;-75
2021/08/09 02:12:55;;;;;;;5.00;1.70;;;;;;;;;;5013968;28;20033;-75
2021/08/09 02:15:25;;;;;;;4.60;2.20;;;;;;;;;;5012164;28;20022;-75
2021/08/09 02:17:51;;;;;;;;;;;;;;;;;;5014676;28;20116;-74
2021/08/09 02:20:28;;;;;;;5.38;2.75;;;;;;;;;;5012421;28;19953;-74
2021/08/09 02:22:57;;;;;;;5.85;2.30;;;;;;;;;;5013907;28;20068;-74
2021/08/09 02:25:26;;;;;;;6.95;2.22;;;;;;;;;;5013876;28;20022;-74
2021/08/09 02:27:55;;;;;;;5.68;2.25;;;;;;;;;;5013602;28;20382;-76
2021/08/09 02:30:23;;;;;;;5.40;2.45;;;;;;;;;;5013815;28;20390;-74
2021/08/09 02:32:50;;;;;;;5.55;2.10;;;;;;;;;;5013711;28;20029;-74
2021/08/09 02:35:20;;;;;;;7.50;2.75;;;;;;;;;;5013735;28;20029;-76
2021/08/09 02:37:46;;;;;;;5.47;2.25;;;;;;;;;;5013716;28;20026;-74
2021/08/09 02:40:13;;;;;;;5.68;2.60;;;;;;;;;;5013997;28;20026;-75
2021/08/09 02:42:39;;;;;;;4.53;2.13;;;;;;;;;;5012194;28;20474;-74
2021/08/09 02:45:06;;;;;;;8.27;2.47;;;;;;;;;;5013691;28;20026;-74
2021/08/09 02:47:37;;;;;;;5.00;2.47;;;;;;;;;;5013404;28;20029;-76
2021/08/09 02:50:03;;;;;;;7.50;2.35;;;;;;;;;;5013447;28;20511;-75
2021/08/09 02:52:29;;;;;;;6.43;2.53;;;;;;;;;;5013356;28;20037;-74
2021/08/09 02:54:56;;;;;;;4.57;2.33;;;;;;;;;;5013264;28;20026;-75
2021/08/09 02:57:24;;;;;;;9.27;2.15;;;;;;;;;;5013563;28;20044;-74
2021/08/09 02:59:50;;;;;;;8.15;2.75;;;;;;;;;;5013551;28;20064;-75
2021/08/09 03:02:17;;;;;;;6.05;2.50;;;;;;;;;;5013210;28;20017;-75
2021/08/09 03:04:44;;;;;;;6.35;2.33;;;;;;;;;;5013260;28;20503;-74
2021/08/09 03:07:10;;;;;;;4.30;2.47;;;;;;;;;;5013509;28;20040;-75
2021/08/09 03:09:37;;;;;;;6.68;2.92;;;;;;;;;;5013765;28;20083;-74
2021/08/09 03:12:03;;;;;;;7.88;2.40;;;;;;;;;;5013207;28;20026;-74
2021/08/09 03:14:31;;;;;;;6.60;2.28;;;;;;;;;;5013100;28;20072;-75
2021/08/09 03:16:57;;;;;;;6.40;2.58;;;;;;;;;;5013482;28;20101;-75
2021/08/09 03:19:23;;;;;;;7.25;2.33;;;;;;;;;;5011835;28;20030;-74
2021/08/09 03:21:59;;;;;;;9.27;2.95;;;;;;;;;;5013381;28;20030;-74
2021/08/09 03:24:27;;;;;;;4.57;2.35;;;;;;;;;;5013865;28;20037;-74
2021/08/09 03:26:53;;;;;;;4.93;2.25;;;;;;;;;;5013832;28;20026;-74
2021/08/09 03:29:20;;;;;;;5.68;2.42;;;;;;;;;;5013171;28;20037;-75
2021/08/09 03:31:46;;;;;;;8.52;3.03;;;;;;;;;;5013009;28;20033;-75
2021/08/09 03:34:12;;;;;;;5.88;2.63;;;;;;;;;;5011673;28;20055;-76
2021/08/09 03:36:41;;;;;;;8.43;2.80;;;;;;;;;;5013248;28;20026;-73
2021/08/09 03:39:08;;;;;;;5.38;2.70;;;;;;;;;;5012943;28;20030;-75
2021/08/09 03:41:34;;;;;;;8.98;2.65;;;;;;;;;;5012942;28;20421;-75
2021/08/09 03:44:00;;;;;;;7.43;2.50;;;;;;;;;;5015318;28;20030;-73
2021/08/09 03:46:26;;;;;;;7.97;2.55;;;;;;;;;;5016677;28;20057;-76
2021/08/09 03:48:52;;;;;;;7.20;2.50;;;;;;;;;;5016364;28;20032;-74
2021/08/09 03:51:18;;;;;;;6.40;2.53;;;;;;;;;;5016606;28;20097;-75
2021/08/09 03:53:44;;;;;;;5.72;2.47;;;;;;;;;;5016206;28;20030;-74
2021/08/09 03:56:10;;;;;;;7.97;2.80;;;;;;;;;;5016212;28;20036;-73
2021/08/09 03:58:37;;;;;;;5.80;2.38;;;;;;;;;;5016182;28;20105;-75
2021/08/09 04:01:04;;;;;;;7.45;2.53;;;;;;;;;;5016147;28;20022;-75
2021/08/09 04:03:30;;;;;;;7.10;2.40;;;;;;;;;;5016062;28;20030;-74
2021/08/09 04:05:56;;;;;;;9.82;3.22;;;;;;;;;;5015910;28;20049;-76
2021/08/09 04:08:22;;;;;;;5.57;2.58;;;;;;;;;;5014732;28;20030;-76
2021/08/09 04:10:48;;;;;;;6.15;2.25;;;;;;;;;;5016489;28;20033;-76
2021/08/09 04:13:14;;;;;;;5.78;2.60;;;;;;;;;;5016161;28;20034;-76
2021/08/09 04:15:40;;;;;;;3.35;2.20;;;;;;;;;;5015840;28;20026;-74
2021/08/09 04:18:06;;;;;;;5.20;2.22;;;;;;;;;;5016103;28;20033;-76
2021/08/09 04:20:32;;;;;;;4.68;2.50;;;;;;;;;;5014481;28;20077;-74
2021/08/09 04:22:58;;;;;;;7.63;2.20;;;;;;;;;;5015732;28;20032;-74
2021/08/09 04:25:27;;;;;;;5.15;2.75;;;;;;;;;;5015678;28;20026;-74
2021/08/09 04:27:53;;;;;;;5.85;2.38;;;;;;;;;;5015932;28;20076;-75
2021/08/09 04:30:19;;;;;;;7.80;2.58;;;;;;;;;;5015610;28;20026;-77
2021/08/09 04:32:45;;;;;;;5.53;2.28;;;;;;;;;;5015466;28;20092;-74
2021/08/09 04:35:12;;;;;;;5.10;2.28;;;;;;;;;;5015515;28;20026;-75
2021/08/09 04:37:39;;;;;;;5.00;2.20;;;;;;;;;;5015754;28;20036;-76
2021/08/09 04:40:05;;;;;;;5.03;2.30;;;;;;;;;;5015409;28;20474;-75
2021/08/09 04:42:31;;;;;;;6.05;2.28;;;;;;;;;;5015344;28;20028;-74
2021/08/09 04:44:58;;;;;;;4.80;2.30;;;;;;;;;;5015312;28;20025;-75
2021/08/09 04:47:24;;;;;;;4.82;2.20;;;;;;;;;;5015588;28;20437;-76
2021/08/09 04:49:50;;;;;;;6.13;2.88;;;;;;;;;;5015203;28;20026;-76
2021/08/09 04:52:17;;;;;;;6.55;2.03;;;;;;;;;;5015211;28;20034;-75
2021/08/09 04:54:43;;;;;;;3.55;2.00;;;;;;;;;;5013581;28;20022;-74
2021/08/09 04:57:09;;;;;;;5.78;2.20;;;;;;;;;;5015387;28;20037;-76
2021/08/09 04:59:35;;;;;;;4.60;2.13;;;;;;;;;;5015339;28;20359;-75
2021/08/09 05:02:01;;;;;;;3.75;2.05;;;;;;;;;;5015003;28;20033;-75
2021/08/09 05:04:27;;;;;;;6.53;2.70;;;;;;;;;;5014740;28;20022;-74
2021/08/09 05:06:54;;;;;;;5.13;2.20;;;;;;;;;;5015205;28;20087;-74
2021/08/09 05:09:20;;;;;;;5.60;2.33;;;;;;;;;;5014932;28;20058;-75
2021/08/09 05:11:46;;;;;;;8.00;2.05;;;;;;;;;;5015392;28;20497;-75
2021/08/09 05:14:12;;;;;;;7.53;2.83;;;;;;;;;;5013467;28;20034;-76
2021/08/09 05:16:39;;;;;;;6.30;2.13;;;;;;;;;;5014978;28;20048;-74
2021/08/09 05:19:05;;;;;;;4.55;2.28;;;;;;;;;;5014788;28;20022;-74
2021/08/09 05:21:32;;;;;;;4.03;1.90;;;;;;;;;;5014711;28;20034;-75
2021/08/09 05:23:59;;;;;;;3.38;2.20;;;;;;;;;;5014663;28;20022;-75
2021/08/09 05:26:25;;;;;;;5.32;2.20;;;;;;;;;;5014879;28;20105;-75
2021/08/09 05:28:51;;;;;;;4.07;2.22;;;;;;;;;;5014792;28;20115;-76
2021/08/09 05:31:17;;;;;;;4.13;2.00;;;;;;;;;;5014482;28;20065;-75
2021/08/09 05:33:43;;;;;;;4.53;2.22;;;;;;;;;;5014597;28;20113;-75
2021/08/09 05:36:09;;;;;;;4.07;2.00;;;;;;;;;;5014690;28;20025;-76
2021/08/09 05:38:35;;;;;;;6.18;2.53;;;;;;;;;;5014336;28;20018;-75
2021/08/09 05:41:04;;;;;;;6.30;2.72;;;;;;;;;;5014633;28;20520;-75
2021/08/09 05:43:31;;;;;;;4.93;2.00;;;;;;;;;;5014330;28;20057;-76
2021/08/09 05:45:57;;;;;;;5.78;2.25;;;;;;;;;;5014266;28;20026;-75
2021/08/09 05:48:23;;;;;;;5.53;2.83;;;;;;;;;;5014227;28;20032;-75
2021/08/09 05:50:49;;;;;;;3.50;2.25;;;;;;;;;;5014191;28;20105;-74
2021/08/09 05:53:15;;;;;;;8.43;2.50;;;;;;;;;;5014319;28;20105;-75
2021/08/09 05:55:41;;;;;;;8.13;2.63;;;;;;;;;;5014036;28;20467;-74
2021/08/09 05:58:07;;;;;;;5.68;2.58;;;;;;;;;;5012758;28;20018;-75
2021/08/09 06:00:33;;;;;;;6.47;2.60;;;;;;;;;;5014256;28;20064;-77
2021/08/09 06:03:00;;;;;;;6.70;2.95;;;;;;;;;;5013866;28;20028;-78
2021/08/09 06:05:27;;;;;;;6.55;2.40;;;;;;;;;;5013185;28;20048;-74
2021/08/09 06:07:53;;;;;;;3.67;2.13;;;;;;;;;;5012646;28;20037;-74
2021/08/09 06:10:21;;;;;;;6.53;2.53;;;;;;;;;;5013848;28;20026;-74
2021/08/09 06:12:47;;;;;;;7.45;3.05;;;;;;;;;;5013746;28;20557;-75
2021/08/09 06:15:13;;;;;;;6.10;2.65;;;;;;;;;;5013760;28;20108;-76
2021/08/09 06:17:39;;;;;;;4.30;2.45;;;;;;;;;;5013711;28;20022;-75
2021/08/09 06:20:06;;;;;;;5.57;2.60;;;;;;;;;;5012433;28;20026;-74
2021/08/09 06:22:31;;;;;;;6.05;2.63;;;;;;;;;;5013942;28;20022;-76
2021/08/09 06:24:57;;;;;;;6.05;2.17;;;;;;;;;;5013631;28;20564;-75
2021/08/09 06:27:23;;;;;;;4.28;1.90;;;;;;;;;;5013609;28;20026;-76
2021/08/09 06:29:50;;;;;;;4.75;2.20;;;;;;;;;;5013892;28;20199;-74
2021/08/09 06:32:16;;;;;;;5.00;2.10;;;;;;;;;;5013586;28;20025;-75
2021/08/09 06:34:42;;;;;;;2.50;1.73;;;;;;;;;;5013471;28;20065;-75
2021/08/09 06:37:08;;;;;;;2.25;1.60;;;;;;;;;;5013521;28;20025;-76
2021/08/09 06:39:34;;;;;;;4.95;2.20;;;;;;;;;;5013446;28;20026;-75
2021/08/09 06:42:03;;;;;;;5.60;1.90;;;;;;;;;;5012163;28;20112;-75
2021/08/09 06:44:32;;;;;;;2.95;1.80;;;;;;;;;;5013463;28;20398;-75
2021/08/09 06:46:59;;;;;;;1.85;1.70;;;;;;;;;;5013719;28;20030;-75
2021/08/09 06:49:25;;;;;;;4.15;2.00;;;;;;;;;;5013313;28;20041;-76
2021/08/09 06:51:51;;;;;;;2.72;1.95;;;;;;;;;;5013816;28;20028;-75
2021/08/09 06:54:20;;;;;;;2.33;1.50;;;;;;;;;;5013304;28;20037;-77
2021/08/09 06:56:46;;;;;;;3.25;1.88;;;;;;;;;;5012809;28;20041;-74
2021/08/09 06:59:12;;;;;;;3.85;1.50;;;;;;;;;;5013308;28;20474;-73
2021/08/09 07:01:38;;;;;;;3.42;1.30;;;;;;;;;;5013266;28;20552;-74
2021/08/09 07:04:04;;;;;;;3.92;1.75;;;;;;;;;;5013165;28;20034;-74
2021/08/09 07:06:30;;;;;;;2.15;1.40;;;;;;;;;;5012899;28;20057;-76
2021/08/09 07:08:56;;;;;;;2.60;1.63;;;;;;;;;;5013499;28;20037;-77
2021/08/09 07:11:23;;;;;;;2.83;1.30;;;;;;;;;;5013181;28;20101;-74
2021/08/09 07:13:51;;;;;;;3.05;1.60;;;;;;;;;;5013635;28;20030;-74
2021/08/09 07:16:20;;;;;;;3.10;1.30;;;;;;;;;;5011928;28;20113;-77
2021/08/09 07:18:46;;;;;;;2.13;1.40;;;;;;;;;;5014104;28;20056;-74
2021/08/09 07:21:12;;;;;;;2.67;1.42;;;;;;;;;;5017201;28;20038;-77
2021/08/09 07:23:38;;;;;;;2.83;1.23;;;;;;;;;;5016863;28;20558;-75
2021/08/09 07:26:04;;;;;;;1.90;1.30;;;;;;;;;;5016847;28;20049;-75
2021/08/09 07:28:30;;;;;;;2.05;1.30;;;;;;;;;;5015476;28;20033;-76
2021/08/09 07:30:56;;;;;;;3.03;1.75;;;;;;;;;;5017001;28;20022;-76
2021/08/09 07:33:22;;;;;;;3.22;1.30;;;;;;;;;;5016651;28;20030;-75
2021/08/09 07:35:48;;;;;;;2.22;1.10;;;;;;;;;;5016617;28;20359;-76
2021/08/09 07:38:14;;;;;;;2.10;1.20;;;;;;;;;;5016875;28;20470;-76
2021/08/09 07:40:40;;;;;;;5.85;1.80;;;;;;;;;;5015310;28;20031;-76
2021/08/09 07:43:06;;;;;;;2.10;1.10;;;;;;;;;;5015307;28;20022;-76
2021/08/09 07:45:32;;;;;;;2.00;1.00;;;;;;;;;;5016789;28;20033;-75
2021/08/09 07:47:58;;;;;;;0.88;0.80;;;;;;;;;;5016428;28;20441;-77
2021/08/09 07:50:24;;;;;;;1.00;0.90;;;;;;;;;;5016401;28;20026;-75
2021/08/09 07:52:50;;;;;;;1.52;0.88;;;;;;;;;;5016295;28;20110;-76
2021/08/09 07:55:17;;;;;;;1.63;1.02;;;;;;;;;;5016334;28;20390;-76
2021/08/09 07:57:43;;;;;;;1.17;0.90;;;;;;;;;;5016544;28;20092;-76
2021/08/09 08:00:09;;;;;;;1.10;1.00;;;;;;;;;;5016251;28;20018;-75
2021/08/09 08:02:35;;;;;;;1.50;0.90;;;;;;;;;;5016220;28;20429;-76
2021/08/09 08:05:02;;;;;;;1.25;1.00;;;;;;;;;;5016180;28;20049;-77
2021/08/09 08:07:28;;;;;;;1.75;1.20;;;;;;;;;;5016101;28;20034;-77
2021/08/09 08:09:54;;;;;;;1.30;1.02;;;;;;;;;;5016543;28;20030;-77
2021/08/09 08:12:20;;;;;;;2.65;1.25;;;;;;;;;;5015992;28;20041;-76
2021/08/09 08:14:46;;;;;;;1.25;1.10;;;;;;;;;;5014563;28;20390;-75
2021/08/09 08:17:12;;;;;;;2.55;1.10;;;;;;;;;;5015876;28;20022;-76
2021/08/09 08:19:38;;;;;;;2.40;1.23;;;;;;;;;;5015853;28;20484;-76
2021/08/09 08:22:04;;;;;;;1.63;1.33;;;;;;;;;;5015790;28;20115;-76
2021/08/09 08:24:30;;;;;;;1.95;1.20;;;;;;;;;;5016280;28;20030;-77
2021/08/09 08:26:56;;;;;;;2.15;1.60;;;;;;;;;;5015728;28;20475;-76
2021/08/09 08:29:22;;;;;;;4.57;1.50;;;;;;;;;;5013786;28;20028;-76
2021/08/09 08:31:48;;;;;;;4.53;1.20;;;;;;;;;;5014326;28;20053;-77
2021/08/09 08:34:14;;;;;;;3.03;1.50;;;;;;;;;;5014204;28;20490;-77
2021/08/09 08:36:40;;;;;;;3.63;1.35;;;;;;;;;;5015476;28;20030;-76
2021/08/09 08:39:10;;;;;;;1.52;1.25;;;;;;;;;;5015509;28;20022;-77
2021/08/09 08:41:36;;;;;;;2.13;1.33;;;;;;;;;;5015485;28;20106;-78
2021/08/09 08:44:02;;;;;;;4.75;1.55;;;;;;;;;;5015404;28;20033;-78
2021/08/09 08:46:29;;;;;;;4.03;1.90;;;;;;;;;;5015046;28;20087;-77
2021/08/09 08:48:58;;;;;;;1.80;1.25;;;;;;;;;;5017193;28;20041;-76
2021/08/09 08:51:24;;;;;;;1.60;1.25;;;;;;;;;;5016546;28;20026;-78
2021/08/09 08:53:50;;;;;;;3.13;1.63;;;;;;;;;;5015147;28;20120;-76
2021/08/09 08:56:16;;;;;;;2.72;1.40;;;;;;;;;;5015134;28;20026;-75
2021/08/09 08:58:43;;;;;;;2.42;1.60;;;;;;;;;;5015091;28;20158;-77
2021/08/09 09:01:09;;;;;;;3.13;1.27;;;;;;;;;;5015601;28;20097;-78
2021/08/09 09:03:41;;;;;;;4.43;1.80;;;;;;;;;;5014943;28;20022;-77
2021/08/09 09:06:08;;;;;;;3.25;1.65;;;;;;;;;;5014758;28;20058;-77
2021/08/09 09:08:45;;;;;;;2.20;1.45;;;;;;;;;;5015209;28;20489;-76
2021/08/09 09:11:33;;;;;;;1.80;1.60;;;;;;;;;;5014877;28;20037;-77
2021/08/09 09:14:00;;;;;;;3.45;1.60;;;;;;;;;;5015333;28;20029;-77
2021/08/09 09:16:42;;;;;;;4.10;1.65;;;;;;;;;;5014751;28;20030;-76
2021/08/09 09:19:08;;;;;;;2.83;1.55;;;;;;;;;;5015334;28;20018;-76
2021/08/09 09:21:41;;;;;;;4.18;2.05;;;;;;;;;;5015238;28;20026;-77
2021/08/09 09:24:16;;;;;;;5.18;1.80;;;;;;;;;;5015218;28;20054;-76
2021/08/09 09:26:43;;;;;;;1.27;1.10;;;;;;;;;;5013309;28;20404;-76
2021/08/09 09:29:19;;;;;;;3.38;1.63;;;;;;;;;;5014581;28;20032;-76
2021/08/09 09:31:46;;;;;;;2.20;1.60;;;;;;;;;;5013003;28;20037;-76
2021/08/09 09:34:13;;;;;;;3.20;1.45;;;;;;;;;;5014403;28;20382;-76
2021/08/09 09:36:48;;;;;;;3.78;1.77;;;;;;;;;;5014337;28;20057;-76
2021/08/09 09:39:26;;;;;;;2.88;1.45;;;;;;;;;;5013405;28;20109;-76
2021/08/09 09:41:53;;;;;;;5.45;1.70;;;;;;;;;;5012260;28;20398;-76
2021/08/09 09:44:26;;;;;;;2.90;1.50;;;;;;;;;;5014263;28;20094;-76
2021/08/09 09:46:52;;;;;;;2.22;1.45;;;;;;;;;;5012747;28;20406;-77
2021/08/09 09:49:37;;;;;;;4.00;1.55;;;;;;;;;;5014191;28;20026;-76
2021/08/09 09:52:03;;;;;;;2.13;1.50;;;;;;;;;;5014177;28;20068;-77
2021/08/09 09:54:30;;;;;;;2.22;1.20;;;;;;;;;;5014788;28;20025;-76
2021/08/09 09:56:56;;;;;;;2.25;1.40;;;;;;;;;;5014392;28;20030;-77
2021/08/09 09:59:24;;;;;;;1.88;1.20;;;;;;;;;;5014276;28;20072;-77
2021/08/09 10:01:52;;;;;;;2.88;1.48;;;;;;;;;;5013910;28;20398;-76
2021/08/09 10:04:18;;;;;;;3.95;1.50;;;;;;;;;;5012729;28;20529;-77
2021/08/09 10:06:44;;;;;;;3.22;1.50;;;;;;;;;;5013763;28;20403;-77
2021/08/09 10:09:11;;;;;;;4.15;1.58;;;;;;;;;;5013859;28;20041;-78
2021/08/09 10:11:39;;;;;;;1.55;1.27;;;;;;;;;;5013856;28;20030;-78
2021/08/09 10:14:05;;;;;;;1.58;1.25;;;;;;;;;;5013864;28;20482;-76
2021/08/09 10:16:33;;;;;;;2.65;1.27;;;;;;;;;;5013785;28;20386;-78
2021/08/09 10:19:00;;;;;;;3.25;1.30;;;;;;;;;;5014031;28;20033;-77
2021/08/09 10:21:30;;;;;;;1.85;1.30;;;;;;;;;;5013717;28;20470;-76
2021/08/09 10:23:56;;;;;;;2.92;1.30;;;;;;;;;;5013682;28;20022;-77
2021/08/09 10:26:22;;;;;;;4.13;1.30;;;;;;;;;;5012369;28;20022;-76
2021/08/09 10:29:01;;;;;;;3.30;1.20;;;;;;;;;;5013588;28;20029;-76
2021/08/09 10:31:31;;;;;;;2.58;1.80;;;;;;;;;;5014232;28;20026;-76
2021/08/09 10:33:58;;;;;;;1.50;1.20;;;;;;;;;;5013910;28;20033;-76
2021/08/09 10:36:24;;;;;;;1.80;1.25;;;;;;;;;;5013867;28;20018;-76
2021/08/09 10:38:52;;;;;;;4.38;1.45;;;;;;;;;;5013536;28;20057;-76
2021/08/09 10:41:26;;;;;;;2.50;1.23;;;;;;;;;;5013796;28;20023;-75
2021/08/09 10:44:10;;;;;;;3.22;1.52;;;;;;;;;;5013492;28;20548;-76
2021/08/09 10:46:36;;;;;;;2.08;1.25;;;;;;;;;;5013756;28;20482;-76
2021/08/09 10:49:02;;;;;;;3.17;1.50;;;;;;;;;;5012178;28;20037;-76
2021/08/09 10:51:47;;;;;;;2.00;1.33;;;;;;;;;;5013597;28;20037;-76
2021/08/09 10:54:28;;;;;;;2.42;1.40;;;;;;;;;;5017674;28;20101;-76
2021/08/09 10:56:55;;;;;;;3.05;1.27;;;;;;;;;;5017389;28;20076;-76
2021/08/09 10:59:39;;;;;;;3.67;1.48;;;;;;;;;;5016128;28;20022;-76
2021/08/09 11:02:06;;;;;;;3.95;1.58;;;;;;;;;;5017195;28;20505;-75
2021/08/09 11:04:32;;;;;;;2.03;1.20;;;;;;;;;;5017292;28;20473;-76
2021/08/09 11:06:58;;;;;;;2.55;1.50;;;;;;;;;;5017819;28;20037;-76
2021/08/09 11:09:34;;;;;;;3.83;1.50;;;;;;;;;;5017467;28;20359;-75
2021/08/09 11:12:18;;;;;;;2.45;1.58;;;;;;;;;;5017687;28;20381;-76
2021/08/09 11:15:11;;;;;;;4.15;1.42;;;;;;;;;;5017730;28;20048;-75
2021/08/09 11:17:37;;;;;;;3.90;1.40;;;;;;;;;;5017669;28;20026;-76
2021/08/09 11:20:17;;;;;;;2.33;1.42;;;;;;;;;;5016804;28;20029;-77
2021/08/09 11:22:43;;;;;;;;;;;;;;;;;;5018307;28;20030;-76
2021/08/09 11:25:28;;;;;;;3.65;1.42;;;;;;;;;;5017236;28;20289;-75
2021/08/09 11:27:57;;;;;;;3.17;1.45;;;;;;;;;;5017842;28;20026;-74
2021/08/09 11:30:23;;;;;;;;;;;;;;;;;;5016652;28;20084;-75
2021/08/09 11:32:49;;;;;;;2.55;1.50;;;;;;;;;;5017096;28;19948;-75
2021/08/09 11:35:15;;;;;;;5.88;1.67;;;;;;;;;;5016923;28;20106;-74
2021/08/09 11:37:54;;;;;;;3.13;1.58;;;;;;;;;;5016777;28;20437;-75
2021/08/09 11:40:35;;;;;;;2.67;1.42;;;;;;;;;;5016805;28;20025;-74
2021/08/09 11:43:01;;;;;;;2.15;1.40;;;;;;;;;;5015340;28;20030;-75
2021/08/09 11:45:28;;;;;;;4.22;1.70;;;;;;;;;;5015555;28;20107;-74
2021/08/09 11:47:54;;;;;;;2.40;1.52;;;;;;;;;;5016511;28;20022;-74
2021/08/09 11:50:22;;;;;;;3.35;1.50;;;;;;;;;;5016609;28;20033;-75
2021/08/09 11:52:48;;;;;;;2.92;1.23;;;;;;;;;;5016837;28;20033;-75
2021/08/09 11:55:21;;;;;;;2.28;1.33;;;;;;;;;;5016316;28;20030;-75
2021/08/09 11:57:47;;;;;;;2.88;1.40;;;;;;;;;;5016297;28;20026;-75
2021/08/09 12:00:14;;;;;;;2.38;1.60;;;;;;;;;;5016503;28;20022;-76
2021/08/09 12:02:58;;;;;;;2.03;1.40;;;;;;;;;;5014864;28;20489;-75
2021/08/09 12:05:25;;;;;;;3.80;1.63;;;;;;;;;;5015393;28;20046;-76
2021/08/09 12:08:04;;;;;;;3.50;1.80;;;;;;;;;;5016638;28;20034;-75
2021/08/09 12:10:30;;;;;;;4.72;1.58;;;;;;;;;;5016383;28;20593;-75
2021/08/09 12:12:56;;;;;;;3.28;1.52;;;;;;;;;;5016249;28;20058;-75
2021/08/09 12:15:24;;;;;;;4.88;1.50;;;;;;;;;;5016179;28;20425;-75
2021/08/09 12:18:06;;;;;;;4.05;1.73;;;;;;;;;;5014691;28;20505;-76
2021/08/09 12:20:33;;;;;;;2.75;1.50;;;;;;;;;;5015887;28;20022;-75
2021/08/09 12:22:59;;;;;;;3.35;1.67;;;;;;;;;;5014567;28;20449;-74
2021/08/09 12:25:39;;;;;;;3.55;1.70;;;;;;;;;;5015755;28;20033;-75
2021/08/09 12:28:06;;;;;;;2.20;1.42;;;;;;;;;;5016064;28;20470;-75
2021/08/09 12:30:52;;;;;;;4.38;2.00;;;;;;;;;;5015978;28;20018;-75
2021/08/09 12:33:19;;;;;;;5.63;1.70;;;;;;;;;;5015764;28;20038;-75
2021/08/09 12:35:45;;;;;;;2.70;1.50;;;;;;;;;;5015550;28;20026;-75
2021/08/09 12:38:12;;;;;;;2.85;1.77;;;;;;;;;;5015583;28;20367;-76
2021/08/09 12:40:39;;;;;;;4.00;1.98;;;;;;;;;;5015509;28;20033;-76
2021/08/09 12:43:07;;;;;;;2.75;1.50;;;;;;;;;;5015975;28;20033;-76
2021/08/09 12:45:33;;;;;;;2.63;1.38;;;;;;;;;;5015974;28;20022;-75
2021/08/09 12:47:59;;;;;;;3.70;1.60;;;;;;;;;;5014105;28;20101;-76
2021/08/09 12:50:25;;;;;;;2.63;1.70;;;;;;;;;;5015605;28;20026;-75
2021/08/09 12:52:51;;;;;;;2.78;1.70;;;;;;;;;;5015542;28;20041;-75
2021/08/09 12:55:17;;;;;;;4.13;1.90;;;;;;;;;;5015408;28;20025;-76
2021/08/09 12:57:43;;;;;;;2.83;1.67;;;;;;;;;;5016157;28;20117;-75
2021/08/09 13:00:09;;;;;;;5.43;1.83;;;;;;;;;;5015416;28;20029;-74
2021/08/09 13:02:35;;;;;;;3.35;1.65;;;;;;;;;;5015218;28;20105;-75
2021/08/09 13:05:01;;;;;;;3.53;1.67;;;;;;;;;;5015493;28;20045;-76
2021/08/09 13:07:28;;;;;;;4.22;2.08;;;;;;;;;;5015674;28;20394;-76
2021/08/09 13:09:56;;;;;;;4.95;1.67;;;;;;;;;;5015497;28;20382;-76
2021/08/09 13:12:22;;;;;;;3.05;1.88;;;;;;;;;;5015123;28;20108;-75
2021/08/09 13:14:49;;;;;;;4.72;1.92;;;;;;;;;;5015326;28;20106;-76
2021/08/09 13:17:17;;;;;;;3.33;2.00;;;;;;;;;;5015644;28;20080;-75
2021/08/09 13:19:43;;;;;;;4.28;2.03;;;;;;;;;;5014263;28;20022;-75
2021/08/09 13:22:10;;;;;;;4.63;2.00;;;;;;;;;;5015322;28;20033;-74
2021/08/09 13:24:36;;;;;;;3.55;2.00;;;;;;;;;;5015739;28;20022;-75
2021/08/09 13:27:02;;;;;;;4.43;2.05;;;;;;;;;;5015194;28;20033;-75
2021/08/09 13:29:29;;;;;;;4.25;2.00;;;;;;;;;;5015291;28;20049;-76
2021/08/09 13:31:55;;;;;;;3.15;2.00;;;;;;;;;;5015223;28;20108;-75
2021/08/09 13:34:21;;;;;;;4.05;2.20;;;;;;;;;;5017276;28;20058;-75
2021/08/09 13:36:47;;;;;;;4.22;1.80;;;;;;;;;;5013949;28;20037;-76
2021/08/09 13:39:13;;;;;;;2.40;1.75;;;;;;;;;;5014313;28;20018;-75
2021/08/09 13:41:39;;;;;;;4.82;2.33;;;;;;;;;;5014277;28;20026;-75
2021/08/09 13:44:05;;;;;;;3.80;2.00;;;;;;;;;;5014379;28;20033;-75
2021/08/09 13:46:32;;;;;;;2.95;2.20;;;;;;;;;;5014522;28;20425;-75
2021/08/09 13:48:58;;;;;;;4.38;2.20;;;;;;;;;;5016151;28;20071;-76
2021/08/09 13:51:24;;;;;;;5.35;2.33;;;;;;;;;;5015913;28;20498;-74
2021/08/09 13:53:50;;;;;;;4.10;2.38;;;;;;;;;;5015102;28;20519;-76
2021/08/09 13:56:16;;;;;;;3.15;2.13;;;;;;;;;;5012847;28;20032;-76
2021/08/09 13:58:43;;;;;;;6.15;2.58;;;;;;;;;;5014104;28;20386;-74
2021/08/09 14:01:10;;;;;;;2.97;2.00;;;;;;;;;;5014101;28;20061;-76
2021/08/09 14:03:36;;;;;;;3.78;1.90;;;;;;;;;;5013908;28;20104;-76
2021/08/09 14:06:07;;;;;;;9.02;2.55;;;;;;;;;;5013773;28;20049;-75
2021/08/09 14:08:33;;;;;;;2.88;2.00;;;;;;;;;;5013976;28;20022;-76
2021/08/09 14:10:59;;;;;;;3.55;2.15;;;;;;;;;;5014436;28;20026;-75
2021/08/09 14:13:25;;;;;;;1.92;1.48;;;;;;;;;;5013746;28;20072;-75
2021/08/09 14:15:55;;;;;;;3.33;2.00;;;;;;;;;;5014081;28;20050;-74
2021/08/09 14:18:21;;;;;;;2.70;1.77;;;;;;;;;;5014091;28;20474;-76
2021/08/09 14:20:47;;;;;;;4.13;2.05;;;;;;;;;;5013733;28;20032;-75
2021/08/09 14:23:13;;;;;;;2.47;1.67;;;;;;;;;;5013994;28;20028;-77
2021/08/09 14:25:39;;;;;;;2.92;1.88;;;;;;;;;;5013670;28;20463;-76
2021/08/09 14:28:05;;;;;;;2.15;1.70;;;;;;;;;;5013408;28;20068;-75
2021/08/09 14:30:31;;;;;;;3.47;1.92;;;;;;;;;;5012334;28;20034;-77
2021/08/09 14:32:57;;;;;;;3.53;2.00;;;;;;;;;;5012321;28;20026;-76
2021/08/09 14:35:23;;;;;;;4.10;2.05;;;;;;;;;;5013824;28;20037;-76
2021/08/09 14:37:49;;;;;;;4.35;2.30;;;;;;;;;;5013828;28;20026;-75
2021/08/09 14:40:15;;;;;;;2.88;1.95;;;;;;;;;;5013520;28;20025;-76
2021/08/09 14:42:42;;;;;;;5.05;1.95;;;;;;;;;;5013494;28;20018;-75
2021/08/09 14:45:08;;;;;;;4.53;2.53;;;;;;;;;;5013504;28;20030;-74